sensor_id;sensor_type;location;lat;lon;timestamp;pressure;altitude;pressure_sealevel;temperature;humidity
46782;BME280;32541;46.298;11.506;2022-09-25T00:01:57;89323.75;;;8.81;100.00
46782;BME280;32541;46.298;11.506;2022-09-25T00:04:22;89330.09;;;8.84;100.00
46782;BME280;32541;46.298;11.506;2022-09-25T00:06:47;89322.28;;;8.71;100.00
46782;BME280;32541;46.298;11.506;2022-09-25T00:09:13;89325.28;;;8.65;100.00
46782;BME280;32541;46.298;11.506;2022-09-25T00:11:42;89322.38;;;8.54;100.00
46782;BME280;32541;46.298;11.506;2022-09-25T00:14:08;89319.50;;;8.61;100.00
46782;BME280;32541;46.298;11.506;2022-09-25T00:16:33;89318.53;;;8.66;100.00
46782;BME280;32541;46.298;11.506;2022-09-25T00:18:59;89316.50;;;8.67;100.00
46782;BME280;32541;46.298;11.506;2022-09-25T00:21:44;89319.53;;;8.71;100.00
46782;BME280;32541;46.298;11.506;2022-09-25T00:24:10;89309.28;;;8.71;100.00
46782;BME280;32541;46.298;11.506;2022-09-25T00:26:39;89310.75;;;8.72;100.00
46782;BME280;32541;46.298;11.506;2022-09-25T00:29:07;89308.88;;;8.75;100.00
46782;BME280;32541;46.298;11.506;2022-09-25T00:31:32;89306.13;;;8.75;100.00
46782;BME280;32541;46.298;11.506;2022-09-25T00:34:03;89296.63;;;8.76;100.00
46782;BME280;32541;46.298;11.506;2022-09-25T00:36:29;89293.16;;;8.75;100.00
46782;BME280;32541;46.298;11.506;2022-09-25T00:38:54;89302.66;;;8.74;100.00
46782;BME280;32541;46.298;11.506;2022-09-25T00:41:22;89296.75;;;8.68;100.00
46782;BME280;32541;46.298;11.506;2022-09-25T00:43:52;89299.78;;;8.72;100.00
46782;BME280;32541;46.298;11.506;2022-09-25T00:46:26;89299.78;;;8.72;100.00
46782;BME280;32541;46.298;11.506;2022-09-25T00:51:31;89293.88;;;8.76;100.00
46782;BME280;32541;46.298;11.506;2022-09-25T00:54:00;89283.63;;;8.76;100.00
46782;BME280;32541;46.298;11.506;2022-09-25T00:56:29;89287.38;;;8.71;100.00
46782;BME280;32541;46.298;11.506;2022-09-25T00:58:57;89268.50;;;8.75;100.00
46782;BME280;32541;46.298;11.506;2022-09-25T01:01:23;89274.25;;;8.70;100.00
46782;BME280;32541;46.298;11.506;2022-09-25T01:03:48;89277.41;;;8.66;100.00
46782;BME280;32541;46.298;11.506;2022-09-25T01:06:15;89265.59;;;8.64;100.00
46782;BME280;32541;46.298;11.506;2022-09-25T01:08:42;89275.97;;;8.65;100.00
46782;BME280;32541;46.298;11.506;2022-09-25T01:11:10;89270.91;;;8.62;100.00
46782;BME280;32541;46.298;11.506;2022-09-25T01:13:35;89267.88;;;8.67;100.00
46782;BME280;32541;46.298;11.506;2022-09-25T01:16:30;89271.22;;;8.66;100.00
46782;BME280;32541;46.298;11.506;2022-09-25T01:29:35;89247.94;;;8.48;100.00
46782;BME280;32541;46.298;11.506;2022-09-25T01:32:19;89250.13;;;8.49;100.00
46782;BME280;32541;46.298;11.506;2022-09-25T01:35:11;89249.53;;;8.51;100.00
46782;BME280;32541;46.298;11.506;2022-09-25T01:37:59;89251.00;;;8.52;100.00
46782;BME280;32541;46.298;11.506;2022-09-25T01:40:34;89244.81;;;8.61;100.00
46782;BME280;32541;46.298;11.506;2022-09-25T01:45:58;89241.78;;;8.66;100.00
46782;BME280;32541;46.298;11.506;2022-09-25T01:48:27;89241.19;;;8.58;100.00
46782;BME280;32541;46.298;11.506;2022-09-25T01:51:08;89231.66;;;8.59;100.00
46782;BME280;32541;46.298;11.506;2022-09-25T01:53:40;89226.06;;;8.57;100.00
46782;BME280;32541;46.298;11.506;2022-09-25T01:56:24;89221.84;;;8.56;100.00
46782;BME280;32541;46.298;11.506;2022-09-25T01:58:59;89222.16;;;8.60;100.00
46782;BME280;32541;46.298;11.506;2022-09-25T02:01:30;89221.28;;;8.58;100.00
46782;BME280;32541;46.298;11.506;2022-09-25T02:04:04;89219.13;;;8.56;100.00
46782;BME280;32541;46.298;11.506;2022-09-25T02:06:33;89218.09;;;8.61;100.00
46782;BME280;32541;46.298;11.506;2022-09-25T02:09:03;89218.38;;;8.56;100.00
46782;BME280;32541;46.298;11.506;2022-09-25T02:11:42;89207.59;;;8.58;100.00
46782;BME280;32541;46.298;11.506;2022-09-25T02:14:18;89206.69;;;8.55;100.00
46782;BME280;32541;46.298;11.506;2022-09-25T02:16:47;89207.13;;;8.61;100.00
46782;BME280;32541;46.298;11.506;2022-09-25T02:19:15;89209.31;;;8.63;100.00
46782;BME280;32541;46.298;11.506;2022-09-25T02:22:28;89208.72;;;8.64;100.00
46782;BME280;32541;46.298;11.506;2022-09-25T02:25:12;89198.34;;;8.53;100.00
46782;BME280;32541;46.298;11.506;2022-09-25T02:27:42;89191.00;;;8.46;100.00
46782;BME280;32541;46.298;11.506;2022-09-25T02:30:08;89200.50;;;8.45;100.00
46782;BME280;32541;46.298;11.506;2022-09-25T02:32:36;89198.91;;;8.42;100.00
46782;BME280;32541;46.298;11.506;2022-09-25T02:35:01;89201.22;;;8.46;100.00
46782;BME280;32541;46.298;11.506;2022-09-25T02:37:27;89194.72;;;8.41;100.00
46782;BME280;32541;46.298;11.506;2022-09-25T02:39:55;89192.56;;;8.40;100.00
46782;BME280;32541;46.298;11.506;2022-09-25T02:42:28;89195.16;;;8.37;100.00
46782;BME280;32541;46.298;11.506;2022-09-25T02:48:01;89178.72;;;8.28;100.00
46782;BME280;32541;46.298;11.506;2022-09-25T02:51:04;89184.34;;;8.30;100.00
46782;BME280;32541;46.298;11.506;2022-09-25T02:56:02;89169.50;;;8.33;100.00
46782;BME280;32541;46.298;11.506;2022-09-25T02:58:57;89172.53;;;8.37;100.00
46782;BME280;32541;46.298;11.506;2022-09-25T03:01:27;89168.19;;;8.34;100.00
46782;BME280;32541;46.298;11.506;2022-09-25T03:03:57;89166.91;;;8.54;100.00
46782;BME280;32541;46.298;11.506;2022-09-25T03:06:24;89172.66;;;8.39;100.00
46782;BME280;32541;46.298;11.506;2022-09-25T03:08:54;89178.84;;;8.30;100.00
46782;BME280;32541;46.298;11.506;2022-09-25T03:11:22;89170.50;;;8.28;100.00
46782;BME280;32541;46.298;11.506;2022-09-25T03:13:59;89162.81;;;8.26;100.00
46782;BME280;32541;46.298;11.506;2022-09-25T03:16:47;89161.94;;;8.24;100.00
46782;BME280;32541;46.298;11.506;2022-09-25T03:19:14;89162.69;;;8.24;100.00
46782;BME280;32541;46.298;11.506;2022-09-25T03:21:40;89154.94;;;8.30;100.00
46782;BME280;32541;46.298;11.506;2022-09-25T03:24:06;89152.31;;;8.32;100.00
46782;BME280;32541;46.298;11.506;2022-09-25T03:26:31;89153.91;;;8.35;100.00
46782;BME280;32541;46.298;11.506;2022-09-25T03:28:58;89150.63;;;8.37;100.00
46782;BME280;32541;46.298;11.506;2022-09-25T03:31:27;89151.75;;;8.34;100.00
46782;BME280;32541;46.298;11.506;2022-09-25T03:33:54;89156.53;;;8.33;100.00
46782;BME280;32541;46.298;11.506;2022-09-25T03:36:22;89161.28;;;8.33;100.00
46782;BME280;32541;46.298;11.506;2022-09-25T03:38:50;89157.94;;;8.25;100.00
46782;BME280;32541;46.298;11.506;2022-09-25T03:41:18;89155.91;;;8.25;100.00
46782;BME280;32541;46.298;11.506;2022-09-25T03:43:46;89153.88;;;8.16;100.00
46782;BME280;32541;46.298;11.506;2022-09-25T03:46:18;89155.47;;;8.19;100.00
46782;BME280;32541;46.298;11.506;2022-09-25T03:48:43;89160.50;;;8.23;100.00
46782;BME280;32541;46.298;11.506;2022-09-25T03:51:10;89154.47;;;8.24;100.00
46782;BME280;32541;46.298;11.506;2022-09-25T03:53:35;89152.59;;;8.27;100.00
46782;BME280;32541;46.298;11.506;2022-09-25T03:56:04;89157.25;;;8.34;100.00
46782;BME280;32541;46.298;11.506;2022-09-25T03:58:30;89158.53;;;8.43;100.00
46782;BME280;32541;46.298;11.506;2022-09-25T04:00:56;89162.28;;;8.28;100.00
46782;BME280;32541;46.298;11.506;2022-09-25T04:03:23;89155.03;;;8.23;100.00
46782;BME280;32541;46.298;11.506;2022-09-25T04:05:49;89155.75;;;8.23;100.00
46782;BME280;32541;46.298;11.506;2022-09-25T04:08:15;89160.66;;;8.25;100.00
46782;BME280;32541;46.298;11.506;2022-09-25T04:10:40;89155.59;;;8.21;100.00
46782;BME280;32541;46.298;11.506;2022-09-25T04:13:07;89154.16;;;8.20;100.00
46782;BME280;32541;46.298;11.506;2022-09-25T04:15:34;89139.91;;;8.22;100.00
46782;BME280;32541;46.298;11.506;2022-09-25T04:17:59;89137.31;;;8.24;100.00
46782;BME280;32541;46.298;11.506;2022-09-25T04:20:25;89139.91;;;8.22;100.00
46782;BME280;32541;46.298;11.506;2022-09-25T04:22:50;89134.84;;;8.18;100.00
46782;BME280;32541;46.298;11.506;2022-09-25T04:25:16;89131.09;;;8.23;100.00
46782;BME280;32541;46.298;11.506;2022-09-25T04:27:41;89129.66;;;8.22;100.00
46782;BME280;32541;46.298;11.506;2022-09-25T04:30:10;89138.31;;;8.19;100.00
46782;BME280;32541;46.298;11.506;2022-09-25T04:32:36;89145.50;;;8.14;100.00
46782;BME280;32541;46.298;11.506;2022-09-25T04:35:20;89145.22;;;8.10;100.00
46782;BME280;32541;46.298;11.506;2022-09-25T04:37:45;89144.78;;;8.14;100.00
46782;BME280;32541;46.298;11.506;2022-09-25T04:40:11;89141.34;;;8.13;100.00
46782;BME280;32541;46.298;11.506;2022-09-25T04:42:36;89148.94;;;8.05;100.00
46782;BME280;32541;46.298;11.506;2022-09-25T04:45:02;89150.22;;;7.95;100.00
46782;BME280;32541;46.298;11.506;2022-09-25T04:47:27;89142.84;;;7.88;100.00
46782;BME280;32541;46.298;11.506;2022-09-25T04:49:54;89140.28;;;7.90;100.00
46782;BME280;32541;46.298;11.506;2022-09-25T04:52:19;89135.06;;;7.74;100.00
46782;BME280;32541;46.298;11.506;2022-09-25T04:54:45;89123.09;;;7.79;100.00
46782;BME280;32541;46.298;11.506;2022-09-25T04:57:20;89127.13;;;7.78;100.00
46782;BME280;32541;46.298;11.506;2022-09-25T04:59:46;89126.13;;;7.74;100.00
46782;BME280;32541;46.298;11.506;2022-09-25T05:02:15;89132.56;;;7.59;100.00
46782;BME280;32541;46.298;11.506;2022-09-25T05:04:41;89136.53;;;7.49;100.00
46782;BME280;32541;46.298;11.506;2022-09-25T05:07:06;89139.03;;;7.64;100.00
46782;BME280;32541;46.298;11.506;2022-09-25T05:09:32;89136.88;;;7.62;100.00
46782;BME280;32541;46.298;11.506;2022-09-25T05:11:58;89136.88;;;7.62;100.00
46782;BME280;32541;46.298;11.506;2022-09-25T05:14:24;89127.38;;;7.63;100.00
46782;BME280;32541;46.298;11.506;2022-09-25T05:16:50;89133.97;;;7.60;100.00
46782;BME280;32541;46.298;11.506;2022-09-25T05:19:16;89135.72;;;7.56;100.00
46782;BME280;32541;46.298;11.506;2022-09-25T05:21:42;89136.56;;;7.58;100.00
46782;BME280;32541;46.298;11.506;2022-09-25T05:24:08;89133.84;;;7.58;100.00
46782;BME280;32541;46.298;11.506;2022-09-25T05:26:35;89127.81;;;7.69;100.00
46782;BME280;32541;46.298;11.506;2022-09-25T05:29:02;89121.47;;;7.67;100.00
46782;BME280;32541;46.298;11.506;2022-09-25T05:31:29;89113.00;;;7.63;100.00
46782;BME280;32541;46.298;11.506;2022-09-25T05:33:54;89119.47;;;7.67;100.00
46782;BME280;32541;46.298;11.506;2022-09-25T05:36:20;89116.19;;;7.88;100.00
46782;BME280;32541;46.298;11.506;2022-09-25T05:38:45;89110.13;;;7.70;100.00
46782;BME280;32541;46.298;11.506;2022-09-25T05:41:12;89115.31;;;7.30;100.00
46782;BME280;32541;46.298;11.506;2022-09-25T05:43:39;89128.25;;;7.30;100.00
46782;BME280;32541;46.298;11.506;2022-09-25T05:46:05;89126.41;;;7.32;100.00
46782;BME280;32541;46.298;11.506;2022-09-25T05:48:31;89125.13;;;7.33;100.00
46782;BME280;32541;46.298;11.506;2022-09-25T05:50:56;89122.84;;;7.39;100.00
46782;BME280;32541;46.298;11.506;2022-09-25T05:53:23;89131.03;;;7.39;100.00
46782;BME280;32541;46.298;11.506;2022-09-25T05:55:52;89128.78;;;7.45;100.00
46782;BME280;32541;46.298;11.506;2022-09-25T05:58:18;89144.38;;;7.62;100.00
46782;BME280;32541;46.298;11.506;2022-09-25T06:00:45;89133.88;;;7.68;100.00
46782;BME280;32541;46.298;11.506;2022-09-25T06:03:10;89140.22;;;7.70;100.00
46782;BME280;32541;46.298;11.506;2022-09-25T06:05:36;89133.75;;;7.75;100.00
46782;BME280;32541;46.298;11.506;2022-09-25T06:08:01;89144.13;;;7.77;100.00
46782;BME280;32541;46.298;11.506;2022-09-25T06:10:27;89147.88;;;7.72;100.00
46782;BME280;32541;46.298;11.506;2022-09-25T06:12:57;89153.34;;;7.72;100.00
46782;BME280;32541;46.298;11.506;2022-09-25T06:15:24;89155.63;;;7.75;100.00
46782;BME280;32541;46.298;11.506;2022-09-25T06:17:50;89142.41;;;7.81;100.00
46782;BME280;32541;46.298;11.506;2022-09-25T06:20:16;89162.00;;;7.88;100.00
46782;BME280;32541;46.298;11.506;2022-09-25T06:22:41;89149.19;;;7.90;100.00
46782;BME280;32541;46.298;11.506;2022-09-25T06:25:08;89142.00;;;7.95;100.00
46782;BME280;32541;46.298;11.506;2022-09-25T06:27:35;89139.56;;;7.99;100.00
46782;BME280;32541;46.298;11.506;2022-09-25T06:30:01;89132.69;;;8.07;100.00
46782;BME280;32541;46.298;11.506;2022-09-25T06:32:26;89123.00;;;7.97;100.00
46782;BME280;32541;46.298;11.506;2022-09-25T06:34:52;89123.25;;;7.72;100.00
46782;BME280;32541;46.298;11.506;2022-09-25T06:37:17;89118.91;;;7.69;100.00
46782;BME280;32541;46.298;11.506;2022-09-25T06:39:42;89112.75;;;7.88;100.00
46782;BME280;32541;46.298;11.506;2022-09-25T06:42:08;89106.13;;;7.91;100.00
46782;BME280;32541;46.298;11.506;2022-09-25T06:44:33;89105.28;;;7.98;100.00
46782;BME280;32541;46.298;11.506;2022-09-25T06:46:58;89095.50;;;8.23;100.00
46782;BME280;32541;46.298;11.506;2022-09-25T06:49:26;89089.03;;;8.38;100.00
46782;BME280;32541;46.298;11.506;2022-09-25T06:51:51;89082.53;;;8.53;100.00
46782;BME280;32541;46.298;11.506;2022-09-25T06:54:16;89069.09;;;8.76;100.00
46782;BME280;32541;46.298;11.506;2022-09-25T06:56:42;89069.78;;;8.96;100.00
46782;BME280;32541;46.298;11.506;2022-09-25T06:59:07;89067.47;;;9.32;100.00
46782;BME280;32541;46.298;11.506;2022-09-25T07:01:34;89060.97;;;9.89;100.00
46782;BME280;32541;46.298;11.506;2022-09-25T07:03:59;89065.16;;;10.21;100.00
46782;BME280;32541;46.298;11.506;2022-09-25T07:06:26;89076.66;;;10.50;100.00
46782;BME280;32541;46.298;11.506;2022-09-25T07:08:55;89077.44;;;11.07;91.96
46782;BME280;32541;46.298;11.506;2022-09-25T07:11:23;89083.47;;;11.27;86.71
46782;BME280;32541;46.298;11.506;2022-09-25T07:13:50;89078.50;;;11.58;90.24
46782;BME280;32541;46.298;11.506;2022-09-25T07:16:17;89085.13;;;11.88;88.93
46782;BME280;32541;46.298;11.506;2022-09-25T07:18:44;89080.63;;;12.17;87.87
46782;BME280;32541;46.298;11.506;2022-09-25T07:21:16;89076.38;;;12.51;82.65
46782;BME280;32541;46.298;11.506;2022-09-25T07:23:43;89074.59;;;12.56;79.97
46782;BME280;32541;46.298;11.506;2022-09-25T07:26:14;89064.09;;;12.17;80.83
46782;BME280;32541;46.298;11.506;2022-09-25T07:28:42;89069.63;;;12.29;80.57
46782;BME280;32541;46.298;11.506;2022-09-25T07:33:39;89078.72;;;12.68;82.73
46782;BME280;32541;46.298;11.506;2022-09-25T07:36:05;89085.03;;;13.19;80.79
46782;BME280;32541;46.298;11.506;2022-09-25T07:38:31;89088.75;;;13.63;78.86
46782;BME280;32541;46.298;11.506;2022-09-25T07:40:56;89079.22;;;14.18;77.02
46782;BME280;32541;46.298;11.506;2022-09-25T07:43:22;89078.13;;;14.37;77.02
46782;BME280;32541;46.298;11.506;2022-09-25T07:45:50;89084.00;;;14.72;73.70
46782;BME280;32541;46.298;11.506;2022-09-25T07:48:18;89089.06;;;15.05;71.13
46782;BME280;32541;46.298;11.506;2022-09-25T07:50:45;89085.16;;;15.39;69.65
46782;BME280;32541;46.298;11.506;2022-09-25T07:53:13;89081.84;;;15.43;67.72
46782;BME280;32541;46.298;11.506;2022-09-25T07:55:38;89090.25;;;15.59;68.93
46782;BME280;32541;46.298;11.506;2022-09-25T07:58:03;89085.91;;;15.85;67.70
46782;BME280;32541;46.298;11.506;2022-09-25T08:00:29;89075.59;;;16.19;67.03
46782;BME280;32541;46.298;11.506;2022-09-25T08:02:55;89077.47;;;15.98;63.74
46782;BME280;32541;46.298;11.506;2022-09-25T08:05:21;89077.13;;;16.06;65.22
46782;BME280;32541;46.298;11.506;2022-09-25T08:07:47;89069.78;;;16.59;64.71
46782;BME280;32541;46.298;11.506;2022-09-25T08:10:12;89070.59;;;16.95;64.03
46782;BME280;32541;46.298;11.506;2022-09-25T08:12:37;89070.00;;;16.99;62.73
46782;BME280;32541;46.298;11.506;2022-09-25T08:15:05;89072.44;;;17.24;61.97
46782;BME280;32541;46.298;11.506;2022-09-25T08:17:31;89072.28;;;16.22;60.84
46782;BME280;32541;46.298;11.506;2022-09-25T08:19:57;89073.13;;;15.48;64.01
46782;BME280;32541;46.298;11.506;2022-09-25T08:22:23;89073.44;;;15.70;64.44
46782;BME280;32541;46.298;11.506;2022-09-25T08:24:48;89080.53;;;16.20;64.01
46782;BME280;32541;46.298;11.506;2022-09-25T08:27:14;89074.44;;;16.55;62.49
46782;BME280;32541;46.298;11.506;2022-09-25T08:29:39;89084.78;;;15.61;64.62
46782;BME280;32541;46.298;11.506;2022-09-25T08:32:05;89078.66;;;15.93;62.83
46782;BME280;32541;46.298;11.506;2022-09-25T08:34:31;89080.88;;;16.12;61.94
46782;BME280;32541;46.298;11.506;2022-09-25T08:36:58;89077.34;;;15.20;65.13
46782;BME280;32541;46.298;11.506;2022-09-25T08:39:23;89072.94;;;14.59;67.42
46782;BME280;32541;46.298;11.506;2022-09-25T08:41:51;89075.34;;;14.37;67.73
46782;BME280;32541;46.298;11.506;2022-09-25T08:47:08;89064.28;;;14.37;68.16
46782;BME280;32541;46.298;11.506;2022-09-25T08:52:35;89068.56;;;14.54;67.17
46782;BME280;32541;46.298;11.506;2022-09-25T08:55:01;89059.97;;;14.34;67.13
46782;BME280;32541;46.298;11.506;2022-09-25T09:00:04;89056.22;;;13.75;65.65
46782;BME280;32541;46.298;11.506;2022-09-25T09:02:39;89053.59;;;14.04;66.64
46782;BME280;32541;46.298;11.506;2022-09-25T09:05:14;89056.34;;;14.31;66.39
46782;BME280;32541;46.298;11.506;2022-09-25T09:07:43;89052.50;;;14.79;64.59
46782;BME280;32541;46.298;11.506;2022-09-25T09:10:49;89054.44;;;14.34;64.52
46782;BME280;32541;46.298;11.506;2022-09-25T09:13:52;89039.31;;;14.78;66.71
46782;BME280;32541;46.298;11.506;2022-09-25T09:16:33;89041.53;;;15.85;66.21
46782;BME280;32541;46.298;11.506;2022-09-25T09:19:03;89043.56;;;15.69;61.90
46782;BME280;32541;46.298;11.506;2022-09-25T09:21:36;89025.59;;;15.70;61.53
46782;BME280;32541;46.298;11.506;2022-09-25T09:24:15;89028.44;;;16.34;61.36
46782;BME280;32541;46.298;11.506;2022-09-25T09:32:49;89023.47;;;16.64;56.62
46782;BME280;32541;46.298;11.506;2022-09-25T09:35:51;89021.22;;;16.94;54.38
46782;BME280;32541;46.298;11.506;2022-09-25T09:38:35;89029.84;;;16.51;56.35
46782;BME280;32541;46.298;11.506;2022-09-25T09:42:15;89029.13;;;16.50;58.74
46782;BME280;32541;46.298;11.506;2022-09-25T09:49:54;89020.56;;;15.50;59.50
46782;BME280;32541;46.298;11.506;2022-09-25T09:52:35;89017.13;;;16.61;57.37
46782;BME280;32541;46.298;11.506;2022-09-25T09:55:26;89019.94;;;17.32;53.32
46782;BME280;32541;46.298;11.506;2022-09-25T09:57:56;89019.91;;;16.46;55.70
46782;BME280;32541;46.298;11.506;2022-09-25T10:00:24;89027.03;;;16.02;56.75
46782;BME280;32541;46.298;11.506;2022-09-25T10:02:53;89036.16;;;16.20;56.36
46782;BME280;32541;46.298;11.506;2022-09-25T10:05:24;89035.22;;;15.53;58.13
46782;BME280;32541;46.298;11.506;2022-09-25T10:07:51;89025.97;;;15.17;59.57
46782;BME280;32541;46.298;11.506;2022-09-25T10:10:18;89029.69;;;15.24;60.74
46782;BME280;32541;46.298;11.506;2022-09-25T10:12:52;89033.78;;;14.78;60.24
46782;BME280;32541;46.298;11.506;2022-09-25T10:15:29;89037.88;;;14.77;60.31
46782;BME280;32541;46.298;11.506;2022-09-25T10:17:58;89031.94;;;14.69;60.84
46782;BME280;32541;46.298;11.506;2022-09-25T10:20:31;89038.47;;;14.46;62.58
46782;BME280;32541;46.298;11.506;2022-09-25T10:23:01;89029.13;;;14.39;62.64
46782;BME280;32541;46.298;11.506;2022-09-25T10:25:39;89036.50;;;14.49;62.28
46782;BME280;32541;46.298;11.506;2022-09-25T10:28:40;89029.03;;;14.37;62.56
46782;BME280;32541;46.298;11.506;2022-09-25T10:31:08;89016.31;;;14.46;62.65
46782;BME280;32541;46.298;11.506;2022-09-25T10:33:33;89005.94;;;14.60;63.98
46782;BME280;32541;46.298;11.506;2022-09-25T10:35:59;89004.91;;;14.96;64.90
46782;BME280;32541;46.298;11.506;2022-09-25T10:41:19;89003.25;;;15.97;60.74
46782;BME280;32541;46.298;11.506;2022-09-25T10:43:59;89002.88;;;16.20;61.43
46782;BME280;32541;46.298;11.506;2022-09-25T10:46:31;89003.88;;;16.44;60.27
46782;BME280;32541;46.298;11.506;2022-09-25T10:49:25;89003.78;;;16.09;58.70
46782;BME280;32541;46.298;11.506;2022-09-25T10:52:10;88994.47;;;15.71;62.28
46782;BME280;32541;46.298;11.506;2022-09-25T10:54:36;88996.47;;;15.84;60.69
46782;BME280;32541;46.298;11.506;2022-09-25T10:59:46;88982.38;;;16.60;58.60
46782;BME280;32541;46.298;11.506;2022-09-25T11:02:24;88987.81;;;16.92;57.58
46782;BME280;32541;46.298;11.506;2022-09-25T11:04:54;88991.69;;;17.02;58.18
46782;BME280;32541;46.298;11.506;2022-09-25T11:07:21;88996.34;;;16.47;57.19
46782;BME280;32541;46.298;11.506;2022-09-25T11:09:51;88997.81;;;15.68;58.87
46782;BME280;32541;46.298;11.506;2022-09-25T11:12:21;89003.22;;;16.12;57.78
46782;BME280;32541;46.298;11.506;2022-09-25T11:15:05;89011.09;;;16.18;58.25
46782;BME280;32541;46.298;11.506;2022-09-25T11:17:40;89002.78;;;16.51;56.70
46782;BME280;32541;46.298;11.506;2022-09-25T11:22:56;89010.28;;;17.15;55.90
46782;BME280;32541;46.298;11.506;2022-09-25T11:25:50;89001.94;;;16.98;56.62
46782;BME280;32541;46.298;11.506;2022-09-25T11:28:32;89006.38;;;17.05;56.64
46782;BME280;32541;46.298;11.506;2022-09-25T11:31:09;89003.94;;;16.95;54.61
46782;BME280;32541;46.298;11.506;2022-09-25T11:34:08;88992.59;;;16.40;58.35
46782;BME280;32541;46.298;11.506;2022-09-25T11:39:48;88989.06;;;16.22;56.26
46782;BME280;32541;46.298;11.506;2022-09-25T11:42:47;88988.13;;;15.69;57.28
46782;BME280;32541;46.298;11.506;2022-09-25T11:45:36;88991.59;;;15.38;60.39
46782;BME280;32541;46.298;11.506;2022-09-25T11:48:12;88983.25;;;15.22;60.14
46782;BME280;32541;46.298;11.506;2022-09-25T11:53:25;88967.84;;;15.48;61.84
46782;BME280;32541;46.298;11.506;2022-09-25T11:56:14;88968.72;;;15.84;59.76
46782;BME280;32541;46.298;11.506;2022-09-25T11:59:09;88967.88;;;16.13;58.93
46782;BME280;32541;46.298;11.506;2022-09-25T12:01:47;88975.84;;;16.05;57.72
46782;BME280;32541;46.298;11.506;2022-09-25T12:04:28;88968.53;;;15.96;58.42
46782;BME280;32541;46.298;11.506;2022-09-25T12:12:49;88961.25;;;16.53;60.48
46782;BME280;32541;46.298;11.506;2022-09-25T12:18:08;88960.81;;;16.10;58.57
46782;BME280;32541;46.298;11.506;2022-09-25T12:20:49;88957.88;;;16.06;59.16
46782;BME280;32541;46.298;11.506;2022-09-25T12:37:29;88948.84;;;15.27;61.80
46782;BME280;32541;46.298;11.506;2022-09-25T12:39:58;88943.72;;;15.06;63.65
46782;BME280;32541;46.298;11.506;2022-09-25T12:42:42;88943.22;;;15.10;63.27
46782;BME280;32541;46.298;11.506;2022-09-25T12:45:24;88947.19;;;14.91;62.76
46782;BME280;32541;46.298;11.506;2022-09-25T12:48:14;88943.34;;;14.53;64.25
46782;BME280;32541;46.298;11.506;2022-09-25T12:53:48;88948.13;;;14.37;68.33
46782;BME280;32541;46.298;11.506;2022-09-25T12:56:52;88945.34;;;14.23;72.85
46782;BME280;32541;46.298;11.506;2022-09-25T13:10:02;88935.09;;;14.39;77.01
46782;BME280;32541;46.298;11.506;2022-09-25T13:12:38;88939.47;;;14.44;77.03
46782;BME280;32541;46.298;11.506;2022-09-25T13:17:35;88948.59;;;14.47;nan
46782;BME280;32541;46.298;11.506;2022-09-25T13:22:51;88952.88;;;14.50;76.35
46782;BME280;32541;46.298;11.506;2022-09-25T13:25:20;88945.63;;;14.29;75.25
46782;BME280;32541;46.298;11.506;2022-09-25T13:27:46;88953.25;;;14.15;75.58
46782;BME280;32541;46.298;11.506;2022-09-25T13:30:25;88949.34;;;14.20;77.38
46782;BME280;32541;46.298;11.506;2022-09-25T13:32:54;88945.97;;;14.22;78.47
46782;BME280;32541;46.298;11.506;2022-09-25T13:35:21;88944.50;;;14.34;79.14
46782;BME280;32541;46.298;11.506;2022-09-25T13:37:49;88945.44;;;14.39;78.51
46782;BME280;32541;46.298;11.506;2022-09-25T13:40:17;88945.00;;;14.44;79.24
46782;BME280;32541;46.298;11.506;2022-09-25T13:43:19;88938.53;;;14.54;78.13
46782;BME280;32541;46.298;11.506;2022-09-25T13:45:45;88943.19;;;14.65;78.79
46782;BME280;32541;46.298;11.506;2022-09-25T13:48:32;88942.69;;;14.68;78.84
46782;BME280;32541;46.298;11.506;2022-09-25T13:59:03;88926.97;;;14.73;77.28
46782;BME280;32541;46.298;11.506;2022-09-25T14:01:58;88928.50;;;14.76;75.49
46782;BME280;32541;46.298;11.506;2022-09-25T14:04:44;88927.59;;;14.71;76.22
46782;BME280;32541;46.298;11.506;2022-09-25T14:07:22;88930.00;;;14.79;76.05
46782;BME280;32541;46.298;11.506;2022-09-25T14:09:53;88929.06;;;14.88;74.59
46782;BME280;32541;46.298;11.506;2022-09-25T14:12:35;88925.03;;;14.91;75.48
46782;BME280;32541;46.298;11.506;2022-09-25T14:15:23;88918.25;;;14.94;74.55
46782;BME280;32541;46.298;11.506;2022-09-25T14:17:52;88918.63;;;14.86;71.70
46782;BME280;32541;46.298;11.506;2022-09-25T14:20:40;88922.16;;;14.73;74.02
46782;BME280;32541;46.298;11.506;2022-09-25T14:23:25;88920.31;;;14.78;76.04
46782;BME280;32541;46.298;11.506;2022-09-25T14:26:03;88920.47;;;14.82;75.17
46782;BME280;32541;46.298;11.506;2022-09-25T14:28:33;88913.69;;;14.85;73.80
46782;BME280;32541;46.298;11.506;2022-09-25T14:34:12;88914.94;;;14.37;72.21
46782;BME280;32541;46.298;11.506;2022-09-25T14:36:59;88915.91;;;14.43;70.60
46782;BME280;32541;46.298;11.506;2022-09-25T14:47:39;88922.34;;;13.91;73.97
46782;BME280;32541;46.298;11.506;2022-09-25T14:50:16;88920.53;;;13.69;76.31
46782;BME280;32541;46.298;11.506;2022-09-25T14:52:44;88926.88;;;13.58;76.92
46782;BME280;32541;46.298;11.506;2022-09-25T14:55:14;88937.22;;;13.44;78.62
46782;BME280;32541;46.298;11.506;2022-09-25T14:57:40;88932.00;;;13.50;79.58
46782;BME280;32541;46.298;11.506;2022-09-25T15:00:07;88933.41;;;13.37;82.03
46782;BME280;32541;46.298;11.506;2022-09-25T15:02:44;88931.75;;;13.18;84.35
46782;BME280;32541;46.298;11.506;2022-09-25T15:07:48;88944.13;;;13.17;84.90
46782;BME280;32541;46.298;11.506;2022-09-25T15:13:24;88942.84;;;13.07;88.52
46782;BME280;32541;46.298;11.506;2022-09-25T15:15:54;88936.63;;;13.06;88.88
46782;BME280;32541;46.298;11.506;2022-09-25T15:18:41;88939.66;;;12.99;89.04